sensor_id;sensor_type;location;lat;lon;timestamp;P1;durP1;ratioP1;P2;durP2;ratioP2
69775;SDS011;57049;51.450;-2.516;2023-04-23T00:01:31;1999.90;;;999.90;;
69775;SDS011;57049;51.450;-2.516;2023-04-23T00:03:59;1073.68;;;560.90;;
69775;SDS011;57049;51.450;-2.516;2023-04-23T00:06:27;1044.38;;;536.70;;
69775;SDS011;57049;51.450;-2.516;2023-04-23T00:08:53;586.55;;;304.27;;
69775;SDS011;57049;51.450;-2.516;2023-04-23T00:11:19;1999.90;;;999.90;;
69775;SDS011;57049;51.450;-2.516;2023-04-23T00:13:45;1999.90;;;999.90;;
69775;SDS011;57049;51.450;-2.516;2023-04-23T00:16:13;1068.93;;;546.63;;
69775;SDS011;57049;51.450;-2.516;2023-04-23T00:18:39;1542.88;;;785.53;;
69775;SDS011;57049;51.450;-2.516;2023-04-23T00:21:05;1999.90;;;999.90;;
69775;SDS011;57049;51.450;-2.516;2023-04-23T00:23:32;1537.82;;;773.10;;
69775;SDS011;57049;51.450;-2.516;2023-04-23T00:25:58;728.37;;;361.37;;
69775;SDS011;57049;51.450;-2.516;2023-04-23T00:28:23;1999.90;;;999.90;;
69775;SDS011;57049;51.450;-2.516;2023-04-23T00:30:49;1999.90;;;999.90;;
69775;SDS011;57049;51.450;-2.516;2023-04-23T00:33:15;1042.82;;;519.42;;
69775;SDS011;57049;51.450;-2.516;2023-04-23T00:35:40;1999.90;;;999.90;;
69775;SDS011;57049;51.450;-2.516;2023-04-23T00:38:06;1999.90;;;999.90;;
69775;SDS011;57049;51.450;-2.516;2023-04-23T00:40:31;1999.90;;;999.90;;
69775;SDS011;57049;51.450;-2.516;2023-04-23T00:42:57;1999.90;;;999.90;;
69775;SDS011;57049;51.450;-2.516;2023-04-23T00:45:24;1999.90;;;999.90;;
69775;SDS011;57049;51.450;-2.516;2023-04-23T00:47:49;1999.90;;;999.90;;
69775;SDS011;57049;51.450;-2.516;2023-04-23T00:50:15;1999.90;;;999.90;;
69775;SDS011;57049;51.450;-2.516;2023-04-23T00:52:41;1999.90;;;999.90;;
69775;SDS011;57049;51.450;-2.516;2023-04-23T00:55:07;1999.90;;;999.90;;
69775;SDS011;57049;51.450;-2.516;2023-04-23T00:57:33;1999.90;;;999.90;;
69775;SDS011;57049;51.450;-2.516;2023-04-23T01:00:00;1999.90;;;999.90;;
69775;SDS011;57049;51.450;-2.516;2023-04-23T01:02:27;1999.90;;;999.90;;
69775;SDS011;57049;51.450;-2.516;2023-04-23T01:04:54;1999.90;;;999.90;;
69775;SDS011;57049;51.450;-2.516;2023-04-23T01:07:20;1999.90;;;999.90;;
69775;SDS011;57049;51.450;-2.516;2023-04-23T01:09:46;1999.90;;;999.90;;
69775;SDS011;57049;51.450;-2.516;2023-04-23T01:12:13;1999.90;;;999.90;;
69775;SDS011;57049;51.450;-2.516;2023-04-23T01:14:40;76.68;;;49.05;;
69775;SDS011;57049;51.450;-2.516;2023-04-23T01:17:07;1999.90;;;999.90;;
69775;SDS011;57049;51.450;-2.516;2023-04-23T01:19:33;1025.03;;;514.55;;
69775;SDS011;57049;51.450;-2.516;2023-04-23T01:21:59;1999.90;;;999.90;;
69775;SDS011;57049;51.450;-2.516;2023-04-23T01:24:26;1999.90;;;999.90;;
69775;SDS011;57049;51.450;-2.516;2023-04-23T01:26:53;1999.90;;;999.90;;
69775;SDS011;57049;51.450;-2.516;2023-04-23T01:29:19;1999.90;;;999.90;;
69775;SDS011;57049;51.450;-2.516;2023-04-23T01:31:46;1999.90;;;999.90;;
69775;SDS011;57049;51.450;-2.516;2023-04-23T01:34:12;1999.90;;;999.90;;
69775;SDS011;57049;51.450;-2.516;2023-04-23T01:36:38;1999.90;;;999.90;;
69775;SDS011;57049;51.450;-2.516;2023-04-23T01:39:05;1999.90;;;999.90;;
69775;SDS011;57049;51.450;-2.516;2023-04-23T01:41:31;1999.90;;;999.90;;
69775;SDS011;57049;51.450;-2.516;2023-04-23T01:43:57;1999.90;;;999.90;;
69775;SDS011;57049;51.450;-2.516;2023-04-23T01:46:23;1999.90;;;999.90;;
69775;SDS011;57049;51.450;-2.516;2023-04-23T01:48:49;707.83;;;356.67;;
69775;SDS011;57049;51.450;-2.516;2023-04-23T01:51:15;1999.90;;;999.90;;
69775;SDS011;57049;51.450;-2.516;2023-04-23T01:53:41;1999.90;;;999.90;;
69775;SDS011;57049;51.450;-2.516;2023-04-23T01:56:06;1999.90;;;999.90;;
69775;SDS011;57049;51.450;-2.516;2023-04-23T01:58:33;1999.90;;;999.90;;
69775;SDS011;57049;51.450;-2.516;2023-04-23T02:00:59;1999.90;;;999.90;;
69775;SDS011;57049;51.450;-2.516;2023-04-23T02:03:25;1999.90;;;999.90;;
69775;SDS011;57049;51.450;-2.516;2023-04-23T02:05:50;1999.90;;;999.90;;
69775;SDS011;57049;51.450;-2.516;2023-04-23T02:08:18;1999.90;;;999.90;;
69775;SDS011;57049;51.450;-2.516;2023-04-23T02:10:44;1999.90;;;999.90;;
69775;SDS011;57049;51.450;-2.516;2023-04-23T02:13:10;1999.90;;;999.90;;
69775;SDS011;57049;51.450;-2.516;2023-04-23T02:15:35;1999.90;;;999.90;;
69775;SDS011;57049;51.450;-2.516;2023-04-23T02:18:02;1999.90;;;999.90;;
69775;SDS011;57049;51.450;-2.516;2023-04-23T02:20:28;1999.90;;;999.90;;
69775;SDS011;57049;51.450;-2.516;2023-04-23T02:22:53;1999.90;;;999.90;;
69775;SDS011;57049;51.450;-2.516;2023-04-23T02:25:19;1999.90;;;999.90;;
69775;SDS011;57049;51.450;-2.516;2023-04-23T02:27:46;1999.90;;;999.90;;
69775;SDS011;57049;51.450;-2.516;2023-04-23T02:30:12;1999.90;;;999.90;;
69775;SDS011;57049;51.450;-2.516;2023-04-23T02:32:38;1999.90;;;999.90;;
69775;SDS011;57049;51.450;-2.516;2023-04-23T02:35:03;1999.90;;;999.90;;
69775;SDS011;57049;51.450;-2.516;2023-04-23T02:37:33;1999.90;;;999.90;;
69775;SDS011;57049;51.450;-2.516;2023-04-23T02:39:59;1999.90;;;999.90;;
69775;SDS011;57049;51.450;-2.516;2023-04-23T02:42:25;1999.90;;;999.90;;
69775;SDS011;57049;51.450;-2.516;2023-04-23T02:44:51;1999.90;;;999.90;;
69775;SDS011;57049;51.450;-2.516;2023-04-23T02:47:16;1999.90;;;999.90;;
69775;SDS011;57049;51.450;-2.516;2023-04-23T02:49:42;1999.90;;;999.90;;
69775;SDS011;57049;51.450;-2.516;2023-04-23T02:52:07;1999.90;;;999.90;;
69775;SDS011;57049;51.450;-2.516;2023-04-23T02:54:33;1999.90;;;999.90;;
69775;SDS011;57049;51.450;-2.516;2023-04-23T02:57:00;1999.90;;;999.90;;
69775;SDS011;57049;51.450;-2.516;2023-04-23T02:59:27;1999.90;;;999.90;;
69775;SDS011;57049;51.450;-2.516;2023-04-23T03:01:52;1999.90;;;999.90;;
69775;SDS011;57049;51.450;-2.516;2023-04-23T03:04:18;1999.90;;;999.90;;
69775;SDS011;57049;51.450;-2.516;2023-04-23T03:06:44;1999.90;;;999.90;;
69775;SDS011;57049;51.450;-2.516;2023-04-23T03:09:10;1999.90;;;999.90;;
69775;SDS011;57049;51.450;-2.516;2023-04-23T03:11:36;1999.90;;;999.90;;
69775;SDS011;57049;51.450;-2.516;2023-04-23T03:14:02;1999.90;;;999.90;;
69775;SDS011;57049;51.450;-2.516;2023-04-23T03:16:28;1999.90;;;999.90;;
69775;SDS011;57049;51.450;-2.516;2023-04-23T03:18:55;1999.90;;;999.90;;
69775;SDS011;57049;51.450;-2.516;2023-04-23T03:21:21;1999.90;;;999.90;;
69775;SDS011;57049;51.450;-2.516;2023-04-23T03:23:46;1999.90;;;999.90;;
69775;SDS011;57049;51.450;-2.516;2023-04-23T03:26:12;1999.90;;;999.90;;
69775;SDS011;57049;51.450;-2.516;2023-04-23T03:28:37;1999.90;;;999.90;;
69775;SDS011;57049;51.450;-2.516;2023-04-23T03:31:03;1999.90;;;999.90;;
69775;SDS011;57049;51.450;-2.516;2023-04-23T03:33:28;1999.90;;;999.90;;
69775;SDS011;57049;51.450;-2.516;2023-04-23T03:35:54;1999.90;;;999.90;;
69775;SDS011;57049;51.450;-2.516;2023-04-23T03:38:19;1999.90;;;999.90;;
69775;SDS011;57049;51.450;-2.516;2023-04-23T03:40:45;1999.90;;;999.90;;
69775;SDS011;57049;51.450;-2.516;2023-04-23T03:43:10;1999.90;;;999.90;;
69775;SDS011;57049;51.450;-2.516;2023-04-23T03:45:36;1999.90;;;999.90;;
69775;SDS011;57049;51.450;-2.516;2023-04-23T03:48:01;1999.90;;;999.90;;
69775;SDS011;57049;51.450;-2.516;2023-04-23T03:50:27;1999.90;;;999.90;;
69775;SDS011;57049;51.450;-2.516;2023-04-23T03:52:53;1999.90;;;999.90;;
69775;SDS011;57049;51.450;-2.516;2023-04-23T03:55:19;1999.90;;;999.90;;
69775;SDS011;57049;51.450;-2.516;2023-04-23T03:57:44;1999.90;;;999.90;;
69775;SDS011;57049;51.450;-2.516;2023-04-23T04:00:10;1999.90;;;999.90;;
69775;SDS011;57049;51.450;-2.516;2023-04-23T04:02:36;1999.90;;;999.90;;
69775;SDS011;57049;51.450;-2.516;2023-04-23T04:05:03;1999.90;;;999.90;;
69775;SDS011;57049;51.450;-2.516;2023-04-23T04:07:31;1999.90;;;999.90;;
69775;SDS011;57049;51.450;-2.516;2023-04-23T04:09:57;1999.90;;;999.90;;
69775;SDS011;57049;51.450;-2.516;2023-04-23T04:12:23;1999.90;;;999.90;;
69775;SDS011;57049;51.450;-2.516;2023-04-23T04:14:49;1999.90;;;999.90;;
69775;SDS011;57049;51.450;-2.516;2023-04-23T04:17:15;1999.90;;;999.90;;
69775;SDS011;57049;51.450;-2.516;2023-04-23T04:19:41;1999.90;;;999.90;;
69775;SDS011;57049;51.450;-2.516;2023-04-23T04:22:07;1999.90;;;999.90;;
69775;SDS011;57049;51.450;-2.516;2023-04-23T04:24:33;1999.90;;;999.90;;
69775;SDS011;57049;51.450;-2.516;2023-04-23T04:26:59;1999.90;;;999.90;;
69775;SDS011;57049;51.450;-2.516;2023-04-23T04:29:26;1999.90;;;999.90;;
69775;SDS011;57049;51.450;-2.516;2023-04-23T04:31:54;1999.90;;;999.90;;
69775;SDS011;57049;51.450;-2.516;2023-04-23T04:34:20;1999.90;;;999.90;;
69775;SDS011;57049;51.450;-2.516;2023-04-23T04:36:46;1999.90;;;999.90;;
69775;SDS011;57049;51.450;-2.516;2023-04-23T04:39:12;1999.90;;;999.90;;
69775;SDS011;57049;51.450;-2.516;2023-04-23T04:41:40;1999.90;;;999.90;;
69775;SDS011;57049;51.450;-2.516;2023-04-23T04:44:06;1999.90;;;999.90;;
69775;SDS011;57049;51.450;-2.516;2023-04-23T04:46:32;1999.90;;;999.90;;
69775;SDS011;57049;51.450;-2.516;2023-04-23T04:48:59;1999.90;;;999.90;;
69775;SDS011;57049;51.450;-2.516;2023-04-23T04:51:25;1999.90;;;999.90;;
69775;SDS011;57049;51.450;-2.516;2023-04-23T04:53:51;1999.90;;;999.90;;
69775;SDS011;57049;51.450;-2.516;2023-04-23T04:56:17;1999.90;;;999.90;;
69775;SDS011;57049;51.450;-2.516;2023-04-23T04:58:42;1999.90;;;999.90;;
69775;SDS011;57049;51.450;-2.516;2023-04-23T05:01:07;1999.90;;;999.90;;
69775;SDS011;57049;51.450;-2.516;2023-04-23T05:03:33;1999.90;;;999.90;;
69775;SDS011;57049;51.450;-2.516;2023-04-23T05:06:01;1999.90;;;999.90;;
69775;SDS011;57049;51.450;-2.516;2023-04-23T05:08:26;1999.90;;;999.90;;
69775;SDS011;57049;51.450;-2.516;2023-04-23T05:10:51;1999.90;;;999.90;;
69775;SDS011;57049;51.450;-2.516;2023-04-23T05:13:20;1999.90;;;999.90;;
69775;SDS011;57049;51.450;-2.516;2023-04-23T05:15:46;1999.90;;;999.90;;
69775;SDS011;57049;51.450;-2.516;2023-04-23T05:18:11;1999.90;;;999.90;;
69775;SDS011;57049;51.450;-2.516;2023-04-23T05:20:37;1999.90;;;999.90;;
69775;SDS011;57049;51.450;-2.516;2023-04-23T05:23:02;1999.90;;;999.90;;
69775;SDS011;57049;51.450;-2.516;2023-04-23T05:25:31;1999.90;;;999.90;;
69775;SDS011;57049;51.450;-2.516;2023-04-23T05:27:58;1999.90;;;999.90;;
69775;SDS011;57049;51.450;-2.516;2023-04-23T05:30:24;1999.90;;;999.90;;
69775;SDS011;57049;51.450;-2.516;2023-04-23T05:32:49;1999.90;;;999.90;;
69775;SDS011;57049;51.450;-2.516;2023-04-23T05:35:15;1999.90;;;999.90;;
69775;SDS011;57049;51.450;-2.516;2023-04-23T05:37:40;1999.90;;;999.90;;
69775;SDS011;57049;51.450;-2.516;2023-04-23T05:40:06;1999.90;;;999.90;;
69775;SDS011;57049;51.450;-2.516;2023-04-23T05:42:33;1999.90;;;999.90;;
69775;SDS011;57049;51.450;-2.516;2023-04-23T05:44:59;1999.90;;;999.90;;
69775;SDS011;57049;51.450;-2.516;2023-04-23T05:47:25;1999.90;;;999.90;;
69775;SDS011;57049;51.450;-2.516;2023-04-23T05:49:50;1999.90;;;999.90;;
69775;SDS011;57049;51.450;-2.516;2023-04-23T05:52:16;1999.90;;;999.90;;
69775;SDS011;57049;51.450;-2.516;2023-04-23T05:54:42;1999.90;;;999.90;;
69775;SDS011;57049;51.450;-2.516;2023-04-23T05:57:08;1999.90;;;999.90;;
69775;SDS011;57049;51.450;-2.516;2023-04-23T05:59:33;1999.90;;;999.90;;
69775;SDS011;57049;51.450;-2.516;2023-04-23T06:01:59;1999.90;;;999.90;;
69775;SDS011;57049;51.450;-2.516;2023-04-23T06:04:24;1999.90;;;999.90;;
69775;SDS011;57049;51.450;-2.516;2023-04-23T06:06:50;1999.90;;;999.90;;
69775;SDS011;57049;51.450;-2.516;2023-04-23T06:09:16;687.37;;;345.83;;
69775;SDS011;57049;51.450;-2.516;2023-04-23T06:11:41;171.07;;;109.87;;
69775;SDS011;57049;51.450;-2.516;2023-04-23T06:14:07;1118.90;;;607.15;;
69775;SDS011;57049;51.450;-2.516;2023-04-23T06:16:32;166.87;;;128.50;;
69775;SDS011;57049;51.450;-2.516;2023-04-23T06:18:58;158.40;;;123.53;;
69775;SDS011;57049;51.450;-2.516;2023-04-23T06:21:24;686.50;;;417.77;;
69775;SDS011;57049;51.450;-2.516;2023-04-23T06:23:51;208.95;;;163.38;;
69775;SDS011;57049;51.450;-2.516;2023-04-23T06:26:17;186.73;;;164.18;;
69775;SDS011;57049;51.450;-2.516;2023-04-23T06:28:43;802.63;;;447.67;;
69775;SDS011;57049;51.450;-2.516;2023-04-23T06:31:10;191.18;;;166.23;;
69775;SDS011;57049;51.450;-2.516;2023-04-23T06:33:36;219.77;;;167.02;;
69775;SDS011;57049;51.450;-2.516;2023-04-23T06:36:03;183.55;;;149.60;;
69775;SDS011;57049;51.450;-2.516;2023-04-23T06:38:28;173.80;;;133.87;;
69775;SDS011;57049;51.450;-2.516;2023-04-23T06:40:55;1109.82;;;587.88;;
69775;SDS011;57049;51.450;-2.516;2023-04-23T06:43:21;179.30;;;119.20;;
69775;SDS011;57049;51.450;-2.516;2023-04-23T06:45:46;787.23;;;401.43;;
69775;SDS011;57049;51.450;-2.516;2023-04-23T06:48:12;1999.90;;;999.90;;
69775;SDS011;57049;51.450;-2.516;2023-04-23T06:50:37;1079.20;;;557.40;;
69775;SDS011;57049;51.450;-2.516;2023-04-23T06:53:04;110.07;;;82.47;;
69775;SDS011;57049;51.450;-2.516;2023-04-23T06:55:29;1095.88;;;578.28;;
69775;SDS011;57049;51.450;-2.516;2023-04-23T06:57:55;220.37;;;194.47;;
69775;SDS011;57049;51.450;-2.516;2023-04-23T07:00:23;307.77;;;279.40;;
69775;SDS011;57049;51.450;-2.516;2023-04-23T07:02:49;285.98;;;255.20;;
69775;SDS011;57049;51.450;-2.516;2023-04-23T07:05:15;399.15;;;362.35;;
69775;SDS011;57049;51.450;-2.516;2023-04-23T07:07:41;300.73;;;273.23;;
69775;SDS011;57049;51.450;-2.516;2023-04-23T07:10:07;275.63;;;248.93;;
69775;SDS011;57049;51.450;-2.516;2023-04-23T07:12:35;224.60;;;206.10;;
69775;SDS011;57049;51.450;-2.516;2023-04-23T07:15:01;225.65;;;202.68;;
69775;SDS011;57049;51.450;-2.516;2023-04-23T07:17:27;162.60;;;147.60;;
69775;SDS011;57049;51.450;-2.516;2023-04-23T07:19:53;294.63;;;193.23;;
69775;SDS011;57049;51.450;-2.516;2023-04-23T07:22:18;188.37;;;173.17;;
69775;SDS011;57049;51.450;-2.516;2023-04-23T07:24:44;131.10;;;120.85;;
69775;SDS011;57049;51.450;-2.516;2023-04-23T07:27:09;173.00;;;157.60;;
69775;SDS011;57049;51.450;-2.516;2023-04-23T07:29:35;74.40;;;67.63;;
69775;SDS011;57049;51.450;-2.516;2023-04-23T07:32:00;43.63;;;39.70;;
69775;SDS011;57049;51.450;-2.516;2023-04-23T07:34:26;60.30;;;47.50;;
69775;SDS011;57049;51.450;-2.516;2023-04-23T07:36:52;48.03;;;42.88;;
69775;SDS011;57049;51.450;-2.516;2023-04-23T07:39:17;64.97;;;59.83;;
69775;SDS011;57049;51.450;-2.516;2023-04-23T07:41:42;96.83;;;78.77;;
69775;SDS011;57049;51.450;-2.516;2023-04-23T07:44:08;153.40;;;140.95;;
69775;SDS011;57049;51.450;-2.516;2023-04-23T07:46:34;225.13;;;201.63;;
69775;SDS011;57049;51.450;-2.516;2023-04-23T07:48:59;314.17;;;281.13;;
69775;SDS011;57049;51.450;-2.516;2023-04-23T07:51:25;334.10;;;275.40;;
69775;SDS011;57049;51.450;-2.516;2023-04-23T07:53:53;361.70;;;315.40;;
69775;SDS011;57049;51.450;-2.516;2023-04-23T07:56:20;310.10;;;268.50;;
69775;SDS011;57049;51.450;-2.516;2023-04-23T07:58:46;318.27;;;219.65;;
69775;SDS011;57049;51.450;-2.516;2023-04-23T08:01:12;272.47;;;226.53;;
69775;SDS011;57049;51.450;-2.516;2023-04-23T08:03:37;187.57;;;167.68;;
69775;SDS011;57049;51.450;-2.516;2023-04-23T08:06:03;161.30;;;140.63;;
69775;SDS011;57049;51.450;-2.516;2023-04-23T08:08:28;146.82;;;130.77;;
69775;SDS011;57049;51.450;-2.516;2023-04-23T08:10:54;112.03;;;101.97;;
69775;SDS011;57049;51.450;-2.516;2023-04-23T08:13:19;66.63;;;61.67;;
69775;SDS011;57049;51.450;-2.516;2023-04-23T08:15:45;31.92;;;29.05;;
69775;SDS011;57049;51.450;-2.516;2023-04-23T08:18:11;23.77;;;21.53;;
69775;SDS011;57049;51.450;-2.516;2023-04-23T08:20:36;24.27;;;15.23;;
69775;SDS011;57049;51.450;-2.516;2023-04-23T08:23:01;19.00;;;17.00;;
69775;SDS011;57049;51.450;-2.516;2023-04-23T08:25:28;17.83;;;14.30;;
69775;SDS011;57049;51.450;-2.516;2023-04-23T08:27:54;21.38;;;19.15;;
69775;SDS011;57049;51.450;-2.516;2023-04-23T08:30:19;29.37;;;17.53;;
69775;SDS011;57049;51.450;-2.516;2023-04-23T08:32:46;30.60;;;28.02;;
69775;SDS011;57049;51.450;-2.516;2023-04-23T08:35:13;26.83;;;21.13;;
69775;SDS011;57049;51.450;-2.516;2023-04-23T08:37:39;22.63;;;20.70;;
69775;SDS011;57049;51.450;-2.516;2023-04-23T08:40:05;18.60;;;16.80;;
69775;SDS011;57049;51.450;-2.516;2023-04-23T08:42:41;37.05;;;33.60;;
69775;SDS011;57049;51.450;-2.516;2023-04-23T08:45:12;43.75;;;40.08;;
69775;SDS011;57049;51.450;-2.516;2023-04-23T08:47:39;44.80;;;41.23;;
69775;SDS011;57049;51.450;-2.516;2023-04-23T08:50:09;56.50;;;48.60;;
69775;SDS011;57049;51.450;-2.516;2023-04-23T08:52:37;37.13;;;34.33;;
69775;SDS011;57049;51.450;-2.516;2023-04-23T08:55:09;64.95;;;58.92;;
69775;SDS011;57049;51.450;-2.516;2023-04-23T08:57:35;90.20;;;76.93;;
69775;SDS011;57049;51.450;-2.516;2023-04-23T09:00:03;73.32;;;68.82;;
69775;SDS011;57049;51.450;-2.516;2023-04-23T09:02:35;96.22;;;86.97;;
69775;SDS011;57049;51.450;-2.516;2023-04-23T09:05:05;215.05;;;156.18;;
69775;SDS011;57049;51.450;-2.516;2023-04-23T09:07:32;123.67;;;73.03;;
69775;SDS011;57049;51.450;-2.516;2023-04-23T09:09:58;191.45;;;167.52;;
69775;SDS011;57049;51.450;-2.516;2023-04-23T09:12:24;310.02;;;190.43;;
69775;SDS011;57049;51.450;-2.516;2023-04-23T09:14:50;409.57;;;273.83;;
69775;SDS011;57049;51.450;-2.516;2023-04-23T09:17:16;358.10;;;232.87;;
69775;SDS011;57049;51.450;-2.516;2023-04-23T09:19:42;175.87;;;163.07;;
69775;SDS011;57049;51.450;-2.516;2023-04-23T09:22:10;360.77;;;212.02;;
69775;SDS011;57049;51.450;-2.516;2023-04-23T09:24:35;236.77;;;179.63;;
69775;SDS011;57049;51.450;-2.516;2023-04-23T09:27:01;457.38;;;311.02;;
69775;SDS011;57049;51.450;-2.516;2023-04-23T09:29:27;426.48;;;140.15;;
69775;SDS011;57049;51.450;-2.516;2023-04-23T09:32:02;391.30;;;222.70;;
69775;SDS011;57049;51.450;-2.516;2023-04-23T09:34:33;420.48;;;239.40;;
69775;SDS011;57049;51.450;-2.516;2023-04-23T09:37:03;181.60;;;67.53;;
69775;SDS011;57049;51.450;-2.516;2023-04-23T09:39:32;385.00;;;181.18;;
69775;SDS011;57049;51.450;-2.516;2023-04-23T09:42:02;454.58;;;231.70;;
69775;SDS011;57049;51.450;-2.516;2023-04-23T09:44:32;468.58;;;157.23;;
69775;SDS011;57049;51.450;-2.516;2023-04-23T09:47:07;389.08;;;219.70;;
69775;SDS011;57049;51.450;-2.516;2023-04-23T09:49:45;488.90;;;161.30;;
69775;SDS011;57049;51.450;-2.516;2023-04-23T09:52:11;451.23;;;213.75;;
69775;SDS011;57049;51.450;-2.516;2023-04-23T09:54:37;474.55;;;220.88;;
69775;SDS011;57049;51.450;-2.516;2023-04-23T09:57:03;561.37;;;165.90;;
69775;SDS011;57049;51.450;-2.516;2023-04-23T09:59:32;297.40;;;197.52;;
69775;SDS011;57049;51.450;-2.516;2023-04-23T10:02:00;192.85;;;129.57;;
69775;SDS011;57049;51.450;-2.516;2023-04-23T10:04:28;351.00;;;251.20;;
69775;SDS011;57049;51.450;-2.516;2023-04-23T10:06:54;350.10;;;189.73;;
69775;SDS011;57049;51.450;-2.516;2023-04-23T10:09:21;552.70;;;279.58;;
69775;SDS011;57049;51.450;-2.516;2023-04-23T10:11:59;425.07;;;142.67;;
69775;SDS011;57049;51.450;-2.516;2023-04-23T10:14:26;1571.38;;;773.53;;
69775;SDS011;57049;51.450;-2.516;2023-04-23T10:16:56;386.08;;;108.53;;
69775;SDS011;57049;51.450;-2.516;2023-04-23T10:19:26;356.35;;;114.22;;
69775;SDS011;57049;51.450;-2.516;2023-04-23T10:21:56;333.90;;;84.50;;
69775;SDS011;57049;51.450;-2.516;2023-04-23T10:24:32;868.77;;;396.97;;
69775;SDS011;57049;51.450;-2.516;2023-04-23T10:27:03;337.70;;;113.82;;
69775;SDS011;57049;51.450;-2.516;2023-04-23T10:29:34;433.90;;;200.05;;
69775;SDS011;57049;51.450;-2.516;2023-04-23T10:32:01;471.40;;;216.85;;
69775;SDS011;57049;51.450;-2.516;2023-04-23T10:34:30;536.58;;;211.48;;
69775;SDS011;57049;51.450;-2.516;2023-04-23T10:36:57;490.73;;;154.90;;
69775;SDS011;57049;51.450;-2.516;2023-04-23T10:39:25;598.35;;;200.75;;
69775;SDS011;57049;51.450;-2.516;2023-04-23T10:41:52;340.33;;;104.90;;
69775;SDS011;57049;51.450;-2.516;2023-04-23T10:44:19;507.05;;;230.10;;
69775;SDS011;57049;51.450;-2.516;2023-04-23T10:46:53;288.10;;;159.80;;
69775;SDS011;57049;51.450;-2.516;2023-04-23T10:49:28;340.83;;;208.40;;
69775;SDS011;57049;51.450;-2.516;2023-04-23T10:51:58;332.95;;;174.52;;
69775;SDS011;57049;51.450;-2.516;2023-04-23T10:54:29;211.50;;;88.38;;
69775;SDS011;57049;51.450;-2.516;2023-04-23T10:56:57;387.38;;;170.98;;
69775;SDS011;57049;51.450;-2.516;2023-04-23T10:59:25;483.25;;;210.60;;
69775;SDS011;57049;51.450;-2.516;2023-04-23T11:01:54;435.13;;;229.87;;
69775;SDS011;57049;51.450;-2.516;2023-04-23T11:04:23;624.80;;;176.93;;
69775;SDS011;57049;51.450;-2.516;2023-04-23T11:07:08;325.67;;;201.38;;
69775;SDS011;57049;51.450;-2.516;2023-04-23T11:09:42;426.35;;;170.38;;
69775;SDS011;57049;51.450;-2.516;2023-04-23T11:12:11;461.05;;;209.98;;
69775;SDS011;57049;51.450;-2.516;2023-04-23T11:17:06;343.50;;;186.10;;
69775;SDS011;57049;51.450;-2.516;2023-04-23T11:19:36;439.05;;;191.75;;
69775;SDS011;57049;51.450;-2.516;2023-04-23T11:22:03;499.00;;;213.23;;
69775;SDS011;57049;51.450;-2.516;2023-04-23T11:24:37;410.63;;;227.23;;
69775;SDS011;57049;51.450;-2.516;2023-04-23T11:27:10;424.87;;;232.23;;
69775;SDS011;57049;51.450;-2.516;2023-04-23T11:29:41;459.00;;;319.23;;
69775;SDS011;57049;51.450;-2.516;2023-04-23T11:32:09;544.47;;;214.55;;
69775;SDS011;57049;51.450;-2.516;2023-04-23T11:34:40;440.77;;;209.52;;
69775;SDS011;57049;51.450;-2.516;2023-04-23T11:37:11;291.15;;;236.57;;
69775;SDS011;57049;51.450;-2.516;2023-04-23T11:39:38;298.63;;;268.67;;
69775;SDS011;57049;51.450;-2.516;2023-04-23T11:42:14;237.85;;;215.48;;
69775;SDS011;57049;51.450;-2.516;2023-04-23T11:44:40;264.38;;;227.60;;
69775;SDS011;57049;51.450;-2.516;2023-04-23T11:47:07;241.20;;;192.18;;
69775;SDS011;57049;51.450;-2.516;2023-04-23T11:49:37;208.98;;;184.85;;
69775;SDS011;57049;51.450;-2.516;2023-04-23T11:52:04;230.30;;;123.77;;
69775;SDS011;57049;51.450;-2.516;2023-04-23T11:54:29;409.05;;;149.50;;
69775;SDS011;57049;51.450;-2.516;2023-04-23T11:56:55;326.47;;;276.47;;
69775;SDS011;57049;51.450;-2.516;2023-04-23T11:59:22;384.35;;;270.48;;
69775;SDS011;57049;51.450;-2.516;2023-04-23T12:01:48;296.88;;;208.98;;
69775;SDS011;57049;51.450;-2.516;2023-04-23T12:04:17;320.48;;;287.27;;
69775;SDS011;57049;51.450;-2.516;2023-04-23T12:06:47;385.13;;;205.90;;
69775;SDS011;57049;51.450;-2.516;2023-04-23T12:09:14;493.92;;;200.45;;
69775;SDS011;57049;51.450;-2.516;2023-04-23T12:11:41;502.92;;;244.90;;
69775;SDS011;57049;51.450;-2.516;2023-04-23T12:14:08;374.52;;;273.10;;
69775;SDS011;57049;51.450;-2.516;2023-04-23T12:16:36;397.88;;;292.77;;
69775;SDS011;57049;51.450;-2.516;2023-04-23T12:19:03;411.63;;;268.57;;
69775;SDS011;57049;51.450;-2.516;2023-04-23T12:21:28;553.25;;;287.27;;
69775;SDS011;57049;51.450;-2.516;2023-04-23T12:23:54;485.75;;;200.00;;
69775;SDS011;57049;51.450;-2.516;2023-04-23T12:26:20;444.87;;;227.43;;
69775;SDS011;57049;51.450;-2.516;2023-04-23T12:28:57;383.80;;;151.80;;
69775;SDS011;57049;51.450;-2.516;2023-04-23T12:31:24;380.65;;;167.05;;
69775;SDS011;57049;51.450;-2.516;2023-04-23T12:33:57;383.92;;;146.93;;
69775;SDS011;57049;51.450;-2.516;2023-04-23T12:36:27;291.27;;;86.95;;
69775;SDS011;57049;51.450;-2.516;2023-04-23T12:41:43;440.98;;;76.25;;
69775;SDS011;57049;51.450;-2.516;2023-04-23T12:44:09;161.60;;;31.92;;
69775;SDS011;57049;51.450;-2.516;2023-04-23T12:46:35;231.90;;;50.43;;
69775;SDS011;57049;51.450;-2.516;2023-04-23T12:49:00;70.30;;;20.20;;
69775;SDS011;57049;51.450;-2.516;2023-04-23T12:51:26;320.27;;;52.42;;
69775;SDS011;57049;51.450;-2.516;2023-04-23T12:53:51;77.63;;;15.63;;
69775;SDS011;57049;51.450;-2.516;2023-04-23T12:56:16;60.23;;;21.67;;
69775;SDS011;57049;51.450;-2.516;2023-04-23T12:58:42;63.43;;;9.37;;
69775;SDS011;57049;51.450;-2.516;2023-04-23T13:01:07;119.82;;;31.70;;
69775;SDS011;57049;51.450;-2.516;2023-04-23T13:03:35;316.33;;;104.40;;
69775;SDS011;57049;51.450;-2.516;2023-04-23T13:06:01;1999.90;;;999.90;;
69775;SDS011;57049;51.450;-2.516;2023-04-23T13:08:26;1053.87;;;419.97;;
69775;SDS011;57049;51.450;-2.516;2023-04-23T13:10:51;824.37;;;366.47;;
69775;SDS011;57049;51.450;-2.516;2023-04-23T13:13:17;1999.90;;;999.90;;
69775;SDS011;57049;51.450;-2.516;2023-04-23T13:15:42;282.10;;;81.47;;
69775;SDS011;57049;51.450;-2.516;2023-04-23T13:18:08;1999.90;;;999.90;;
69775;SDS011;57049;51.450;-2.516;2023-04-23T13:20:33;1999.90;;;999.90;;
69775;SDS011;57049;51.450;-2.516;2023-04-23T13:22:59;256.03;;;46.47;;
69775;SDS011;57049;51.450;-2.516;2023-04-23T13:25:26;1172.80;;;541.78;;
69775;SDS011;57049;51.450;-2.516;2023-04-23T13:27:52;1999.90;;;999.90;;
69775;SDS011;57049;51.450;-2.516;2023-04-23T13:30:18;1999.90;;;999.90;;
69775;SDS011;57049;51.450;-2.516;2023-04-23T13:32:43;1999.90;;;999.90;;
69775;SDS011;57049;51.450;-2.516;2023-04-23T13:35:09;1999.90;;;999.90;;
69775;SDS011;57049;51.450;-2.516;2023-04-23T13:37:34;1999.90;;;999.90;;
69775;SDS011;57049;51.450;-2.516;2023-04-23T13:40:00;1999.90;;;999.90;;
69775;SDS011;57049;51.450;-2.516;2023-04-23T13:42:26;1999.90;;;999.90;;
69775;SDS011;57049;51.450;-2.516;2023-04-23T13:44:51;250.80;;;82.13;;